Time;durP1;ratioP1;P1;durP2;ratioP2;P2;SDS_P1;SDS_P2;PMS_P1;PMS_P2;Temp;Humidity;BMP_temperature;BMP_pressure;BME280_temperature;BME280_humidity;BME280_pressure;Samples;Min_cycle;Max_cycle;Signal;HPM_P1;HPM_P2
2022/09/01 00:01:19;;;;;;;19.33;2.53;;;;;;;18.94;100.00;97406.31;5122301;27;20536;-78
2022/09/01 00:03:48;;;;;;;6.05;2.70;;;;;;;18.99;100.00;97395.00;5119452;27;20081;-78
2022/09/01 00:06:21;;;;;;;2.53;1.88;;;;;;;18.98;100.00;97390.59;5102166;28;20034;-78
2022/09/01 00:08:47;;;;;;;4.70;2.58;;;;;;;18.99;100.00;97395.88;5101361;27;20023;-78
2022/09/01 00:11:13;;;;;;;5.32;2.95;;;;;;;18.85;100.00;97389.09;5125370;27;20069;-78
2022/09/01 00:13:38;;;;;;;4.32;2.55;;;;;;;18.87;100.00;97384.38;5105190;27;20043;-77
2022/09/01 00:16:04;;;;;;;4.20;2.28;;;;;;;18.76;100.00;97376.44;5113829;27;20041;-78
2022/09/01 00:18:31;;;;;;;10.40;3.10;;;;;;;18.73;100.00;97378.59;5104931;27;20057;-77
2022/09/01 00:20:58;;;;;;;2.63;2.03;;;;;;;18.75;100.00;97376.59;5100454;28;20047;-77
2022/09/01 00:23:26;;;;;;;2.25;2.10;;;;;;;18.72;100.00;97380.44;5104722;27;20389;-77
2022/09/01 00:25:52;;;;;;;3.55;2.35;;;;;;;18.72;100.00;97380.44;5121913;27;20035;-78
2022/09/01 00:28:17;;;;;;;4.18;2.60;;;;;;;18.73;100.00;97379.47;5109465;27;20651;-78
2022/09/01 00:30:43;;;;;;;14.63;3.28;;;;;;;18.71;100.00;97376.03;5104916;27;20036;-78
2022/09/01 00:33:09;;;;;;;17.15;2.17;;;;;;;18.81;100.00;97384.13;5104180;27;20410;-78
2022/09/01 00:35:34;;;;;;;4.55;2.35;;;;;;;18.81;100.00;97374.13;5105713;27;20056;-78
2022/09/01 00:38:00;;;;;;;7.75;2.38;;;;;;;18.81;100.00;97376.84;5116302;27;20114;-78
2022/09/01 00:40:26;;;;;;;1.75;1.42;;;;;;;18.77;100.00;97370.00;5124727;27;20023;-78
2022/09/01 00:42:52;;;;;;;4.55;2.13;;;;;;;18.81;100.00;97376.84;5113288;27;20027;-78
2022/09/01 00:45:20;;;;;;;5.10;1.85;;;;;;;18.85;100.00;97380.09;5107755;27;20083;-78
2022/09/01 00:47:46;;;;;;;3.25;1.75;;;;;;;18.75;100.00;97357.63;5118878;27;20023;-78
2022/09/01 00:50:14;;;;;;;2.38;1.83;;;;;;;18.83;100.00;97374.81;5121703;27;20031;-78
2022/09/01 00:52:45;;;;;;;2.55;1.67;;;;;;;18.80;100.00;97369.72;5105666;28;20501;-78
2022/09/01 00:55:15;;;;;;;12.02;2.42;;;;;;;18.90;100.00;97375.94;5104349;28;20031;-78
2022/09/01 00:57:41;;;;;;;3.05;1.88;;;;;;;18.84;100.00;97367.56;5102295;28;20135;-78
2022/09/01 01:00:17;;;;;;;5.55;1.92;;;;;;;18.84;100.00;97376.53;5100787;27;20015;-78
2022/09/01 01:02:43;;;;;;;6.70;1.98;;;;;;;18.83;100.00;97369.41;5104463;27;20403;-77
2022/09/01 01:05:11;;;;;;;1.90;1.80;;;;;;;18.80;100.00;97360.72;5118920;27;20028;-78
2022/09/01 01:07:41;;;;;;;2.28;1.77;;;;;;;18.79;100.00;97365.31;5101542;27;20027;-79
2022/09/01 01:10:10;;;;;;;6.72;2.35;;;;;;;18.80;100.00;97360.72;5119287;27;20023;-78
2022/09/01 01:12:39;;;;;;;1.50;1.40;;;;;;;18.82;100.00;97367.72;5118220;27;20426;-79
2022/09/01 01:15:06;;;;;;;2.58;2.08;;;;;;;18.92;100.00;97368.50;5104510;27;20039;-77
2022/09/01 01:17:32;;;;;;;2.92;1.77;;;;;;;18.85;100.00;97359.28;5106932;27;20023;-77
2022/09/01 01:23:07;;;;;;;6.43;1.73;;;;;;;18.87;100.00;97367.25;5107116;27;20034;-78
2022/09/01 01:25:53;;;;;;;5.30;2.55;;;;;;;18.87;100.00;97378.94;5120543;27;20023;-78
2022/09/01 01:28:21;;;;;;;4.70;2.47;;;;;;;18.84;100.00;97381.97;5120435;27;20026;-78
2022/09/01 01:30:51;;;;;;;4.13;2.17;;;;;;;18.70;100.00;97377.00;5100406;28;20482;-78
2022/09/01 01:33:21;;;;;;;3.78;1.50;;;;;;;18.75;100.00;97377.44;5123517;27;20023;-77
2022/09/01 01:35:47;;;;;;;3.40;1.63;;;;;;;18.73;100.00;97371.31;5123639;27;20027;-77
2022/09/01 01:38:14;;;;;;;5.88;1.50;;;;;;;18.76;100.00;97378.31;5123971;27;20026;-77
2022/09/01 01:40:40;;;;;;;1.63;1.35;;;;;;;18.71;100.00;97377.88;5106380;27;20482;-77
2022/09/01 01:43:06;;;;;;;9.27;2.50;;;;;;;18.74;100.00;97373.00;5106951;27;20030;-78
2022/09/01 01:45:32;;;;;;;4.85;2.72;;;;;;;18.74;100.00;97372.16;5123746;27;20030;-77
2022/09/01 01:47:58;;;;;;;7.07;2.50;;;;;;;18.72;100.00;97377.75;5109196;27;20179;-78
2022/09/01 01:50:29;;;;;;;2.45;1.92;;;;;;;18.65;100.00;97371.19;5106331;27;20023;-78
2022/09/01 01:52:58;;;;;;;5.53;2.17;;;;;;;18.50;100.00;97355.56;5104551;27;20490;-77
2022/09/01 01:55:26;;;;;;;3.03;2.22;;;;;;;18.53;100.00;97368.81;5100583;28;20497;-78
2022/09/01 01:57:52;;;;;;;1.70;1.60;;;;;;;18.56;100.00;97377.53;5124660;27;20117;-78
2022/09/01 02:00:20;;;;;;;8.45;2.63;;;;;;;18.57;100.00;97395.50;5099950;28;20127;-78
2022/09/01 02:02:53;;;;;;;4.88;2.28;;;;;;;18.61;100.00;97393.34;5111225;27;20027;-78
2022/09/01 02:05:20;;;;;;;;;;;;;;;18.63;100.00;97403.03;5110841;28;20020;-78
2022/09/01 02:07:47;;;;;;;2.78;1.42;;;;;;;18.59;100.00;97398.91;5102939;27;20399;-79
2022/09/01 02:10:13;;;;;;;2.88;2.20;;;;;;;18.58;100.00;97389.03;5128303;27;20101;-78
2022/09/01 02:12:40;;;;;;;5.45;1.83;;;;;;;18.48;100.00;97390.94;5129546;27;20023;-78
2022/09/01 02:15:06;;;;;;;3.85;1.73;;;;;;;18.41;100.00;97401.50;5116553;27;20058;-78
2022/09/01 02:17:32;;;;;;;1.38;1.27;;;;;;;18.37;100.00;97391.09;5102862;27;20023;-78
2022/09/01 02:19:58;;;;;;;2.13;1.75;;;;;;;18.37;100.00;97385.66;5104101;28;20115;-79
2022/09/01 02:22:23;;;;;;;11.25;1.98;;;;;;;18.25;100.00;97384.13;5121864;27;20027;-79
2022/09/01 02:24:51;;;;;;;1.60;1.50;;;;;;;18.06;100.00;97376.91;5105552;27;20164;-79
2022/09/01 02:27:23;;;;;;;1.20;1.15;;;;;;;18.17;100.00;97384.88;5111636;27;20115;-79
2022/09/01 02:29:54;;;;;;;4.10;2.30;;;;;;;18.15;100.00;97380.63;5109040;27;20062;-78
2022/09/01 02:32:20;;;;;;;6.15;2.45;;;;;;;18.21;100.00;97391.69;5111888;27;20023;-78
2022/09/01 02:34:52;;;;;;;3.50;2.55;;;;;;;18.23;100.00;97396.97;5108413;27;20038;-77
2022/09/01 02:37:24;;;;;;;2.30;1.52;;;;;;;18.11;100.00;97381.91;5121628;27;20019;-77
2022/09/01 02:39:51;;;;;;;4.63;2.23;;;;;;;18.12;100.00;97380.91;5096615;28;20074;-78
2022/09/01 02:42:17;;;;;;;2.78;1.67;;;;;;;18.06;100.00;97376.06;5099995;27;20463;-78
2022/09/01 02:44:42;;;;;;;9.27;2.60;;;;;;;18.02;100.00;97388.19;5110803;27;20050;-77
2022/09/01 02:47:08;;;;;;;3.42;1.58;;;;;;;18.05;100.00;97387.91;5122380;27;20148;-77
2022/09/01 02:49:34;;;;;;;7.90;2.15;;;;;;;18.12;100.00;97397.97;5088716;28;20031;-78
2022/09/01 02:52:01;;;;;;;1.98;1.75;;;;;;;18.19;100.00;97391.00;5100961;27;20119;-76
2022/09/01 02:54:29;;;;;;;7.25;1.55;;;;;;;18.09;100.00;97378.50;5106472;28;20563;-77
2022/09/01 02:56:55;;;;;;;10.93;2.40;;;;;;;18.08;100.00;97377.63;5110499;28;20027;-77
2022/09/01 02:59:23;;;;;;;2.97;2.15;;;;;;;18.07;100.00;97378.63;5105534;27;20029;-79
2022/09/01 03:01:51;;;;;;;2.78;1.77;;;;;;;18.12;100.00;97389.88;5103321;28;20035;-78
2022/09/01 03:04:17;;;;;;;1.88;1.75;;;;;;;18.21;100.00;97388.16;5110066;28;20077;-77
2022/09/01 03:06:43;;;;;;;4.97;3.50;;;;;;;18.13;100.00;97380.75;5124132;27;20494;-76
2022/09/01 03:09:13;;;;;;;3.90;1.80;;;;;;;18.10;100.00;97378.34;5101553;28;20554;-77
2022/09/01 03:11:41;;;;;;;7.05;2.10;;;;;;;18.15;100.00;97386.03;5098875;27;20026;-78
2022/09/01 03:14:07;;;;;;;2.15;1.95;;;;;;;18.13;100.00;97390.72;5101229;28;20487;-77
2022/09/01 03:16:34;;;;;;;16.08;2.25;;;;;;;18.13;100.00;97393.44;5120660;28;20101;-78
2022/09/01 03:19:02;;;;;;;3.15;2.22;;;;;;;18.18;100.00;97397.41;5105211;28;20413;-78
2022/09/01 03:21:28;;;;;;;4.57;2.30;;;;;;;18.08;100.00;97387.59;5113916;28;20022;-79
2022/09/01 03:23:54;;;;;;;2.08;1.48;;;;;;;18.16;100.00;97396.69;5113075;27;20031;-79
2022/09/01 03:26:21;;;;;;;1.42;1.33;;;;;;;18.11;100.00;97392.72;5114600;27;20023;-79
2022/09/01 03:28:48;;;;;;;3.88;1.95;;;;;;;18.08;100.00;97399.28;5105589;28;20038;-78
2022/09/01 03:31:14;;;;;;;2.88;1.85;;;;;;;18.12;100.00;97405.28;5113952;27;20071;-79
2022/09/01 03:33:40;;;;;;;2.42;1.83;;;;;;;18.07;100.00;97391.31;5108367;28;20456;-79
2022/09/01 03:36:06;;;;;;;4.28;2.17;;;;;;;18.13;100.00;97394.28;5122518;27;20026;-78
2022/09/01 03:38:32;;;;;;;1.85;1.75;;;;;;;18.13;100.00;97390.72;5099739;28;20093;-77
2022/09/01 03:41:01;;;;;;;4.03;2.67;;;;;;;18.23;100.00;97405.09;5110140;27;20031;-77
2022/09/01 03:43:28;;;;;;;1.67;1.50;;;;;;;18.08;100.00;97398.44;5108666;28;20482;-78
2022/09/01 03:45:56;;;;;;;4.78;2.38;;;;;;;18.13;100.00;97386.16;5106513;27;20020;-76
2022/09/01 03:48:25;;;;;;;5.95;1.98;;;;;;;18.18;100.00;97393.88;5115097;27;20114;-77
2022/09/01 03:50:50;;;;;;;7.18;2.50;;;;;;;18.21;100.00;97388.97;5099881;28;20037;-77
2022/09/01 03:53:19;;;;;;;5.20;1.75;;;;;;;18.19;100.00;97390.13;5105966;27;20113;-78
2022/09/01 03:55:46;;;;;;;5.28;2.47;;;;;;;18.20;100.00;97391.84;5131483;27;20023;-79
2022/09/01 03:58:17;;;;;;;5.72;2.13;;;;;;;18.12;100.00;97381.75;5122733;27;20019;-78
2022/09/01 04:00:45;;;;;;;11.13;4.05;;;;;;;18.10;100.00;97375.63;5117412;27;20033;-76
2022/09/01 04:03:12;;;;;;;4.95;2.25;;;;;;;18.18;100.00;97388.44;5107906;27;20492;-77
2022/09/01 04:05:41;;;;;;;3.05;2.53;;;;;;;18.10;100.00;97385.59;5113801;27;20030;-76
2022/09/01 04:08:10;;;;;;;3.28;2.15;;;;;;;18.09;100.00;97386.63;5108585;28;20035;-77
2022/09/01 04:10:46;;;;;;;4.90;2.95;;;;;;;18.11;100.00;97395.44;5111354;27;20019;-77
2022/09/01 04:13:12;;;;;;;4.90;1.90;;;;;;;18.11;100.00;97401.72;5125481;27;20047;-77
2022/09/01 04:15:38;;;;;;;4.47;2.28;;;;;;;18.09;100.00;97392.03;5116714;27;20035;-77
2022/09/01 04:18:25;;;;;;;4.50;2.33;;;;;;;18.14;100.00;97403.28;5113654;27;20526;-77
2022/09/01 04:20:52;;;;;;;3.15;1.80;;;;;;;18.24;100.00;97409.53;5106493;28;20040;-78
2022/09/01 04:23:25;;;;;;;2.42;1.73;;;;;;;18.27;100.00;97411.94;5096119;28;20020;-78
2022/09/01 04:25:55;;;;;;;3.60;2.70;;;;;;;18.23;100.00;97410.50;5110190;27;20088;-80
2022/09/01 04:28:23;;;;;;;19.17;2.13;;;;;;;18.11;100.00;97390.03;5108120;27;20026;-77
2022/09/01 04:30:56;;;;;;;2.40;2.20;;;;;;;18.12;100.00;97399.88;5103345;28;20081;-77
2022/09/01 04:33:35;;;;;;;5.93;1.40;;;;;;;18.10;100.00;97391.00;5101327;28;20501;-77
2022/09/01 04:36:02;;;;;;;5.38;2.85;;;;;;;18.14;100.00;97397.84;5099679;28;20047;-75
2022/09/01 04:38:28;;;;;;;3.20;2.00;;;;;;;18.17;100.00;97397.56;5104174;28;20027;-75
2022/09/01 04:40:56;;;;;;;3.47;2.75;;;;;;;18.23;100.00;97397.84;5129253;27;20072;-78
2022/09/01 04:43:22;;;;;;;2.42;2.22;;;;;;;18.15;100.00;97386.03;5099175;27;20019;-76
2022/09/01 04:45:50;;;;;;;2.15;1.95;;;;;;;18.10;100.00;97391.00;5133184;27;20066;-76
2022/09/01 04:48:20;;;;;;;7.15;2.42;;;;;;;18.10;100.00;97386.47;5099555;28;20027;-77
2022/09/01 04:50:48;;;;;;;2.95;2.22;;;;;;;18.09;100.00;97373.91;5113999;27;20031;-77
2022/09/01 04:53:16;;;;;;;14.30;2.63;;;;;;;18.20;100.00;97386.44;5113174;27;20516;-76
2022/09/01 04:55:43;;;;;;;2.90;1.83;;;;;;;18.20;100.00;97387.31;5101192;28;20114;-78
2022/09/01 04:58:12;;;;;;;3.17;1.58;;;;;;;18.23;100.00;97388.84;5118864;27;20390;-78
2022/09/01 05:00:39;;;;;;;1.70;1.38;;;;;;;18.26;100.00;97391.28;5104733;28;20031;-77
2022/09/01 05:03:05;;;;;;;2.97;2.08;;;;;;;18.34;100.00;97384.13;5112333;27;20080;-76
2022/09/01 05:05:41;;;;;;;5.22;1.75;;;;;;;18.51;100.00;97379.81;5112427;27;20058;-76
2022/09/01 05:08:12;;;;;;;4.50;2.72;;;;;;;18.54;100.00;97384.94;5112411;27;20521;-76
2022/09/01 05:10:40;;;;;;;2.65;1.88;;;;;;;18.68;100.00;97392.59;5126311;27;20438;-76
2022/09/01 05:13:08;;;;;;;3.25;2.10;;;;;;;18.76;100.00;97384.59;5106132;28;20023;-77
2022/09/01 05:15:37;;;;;;;1.90;1.75;;;;;;;18.86;100.00;97388.06;5111739;27;20508;-77
2022/09/01 05:18:08;;;;;;;2.90;2.28;;;;;;;18.95;100.00;97379.03;5094629;28;20376;-77
2022/09/01 05:20:40;;;;;;;3.20;1.73;;;;;;;19.10;100.00;97373.97;5113356;27;20091;-77
2022/09/01 05:23:07;;;;;;;1.52;1.42;;;;;;;19.00;100.00;97372.31;5115438;27;20034;-76
2022/09/01 05:25:43;;;;;;;3.70;2.63;;;;;;;18.91;100.00;97376.78;5112104;27;20405;-78
2022/09/01 05:28:11;;;;;;;1.90;1.52;;;;;;;18.94;100.00;97371.06;5114802;27;20187;-76
2022/09/01 05:30:39;;;;;;;3.00;2.00;;;;;;;19.01;100.00;97372.16;5103774;28;20470;-76
2022/09/01 05:33:10;;;;;;;3.42;1.88;;;;;;;18.99;100.00;97379.59;5116744;27;20027;-75
2022/09/01 05:35:40;;;;;;;3.80;1.92;;;;;;;18.83;100.00;97373.97;5095685;28;20491;-77
2022/09/01 05:38:11;;;;;;;4.00;2.55;;;;;;;18.65;100.00;97371.19;5097355;27;20156;-79
2022/09/01 05:40:41;;;;;;;2.97;2.00;;;;;;;18.70;100.00;97371.59;5119218;27;20022;-76
2022/09/01 05:43:09;;;;;;;2.45;1.25;;;;;;;18.59;100.00;97368.22;5106918;28;20347;-77
2022/09/01 05:45:37;;;;;;;1.05;0.95;;;;;;;18.68;100.00;97379.03;5116841;27;20023;-77
2022/09/01 05:48:04;;;;;;;4.80;1.85;;;;;;;18.78;100.00;97365.44;5106762;27;20060;-77
2022/09/01 05:50:30;;;;;;;4.55;2.35;;;;;;;18.92;100.00;97368.50;5107998;27;20391;-77
2022/09/01 05:52:55;;;;;;;4.20;2.15;;;;;;;18.81;100.00;97363.28;5111956;27;20117;-78
2022/09/01 05:55:21;;;;;;;1.40;1.27;;;;;;;18.78;100.00;97360.88;5103198;27;20051;-76
2022/09/01 05:57:48;;;;;;;2.92;2.13;;;;;;;18.81;100.00;97365.13;5102675;28;20033;-76
2022/09/01 06:00:16;;;;;;;2.17;1.90;;;;;;;18.98;100.00;97366.22;5127095;27;20019;-74
2022/09/01 06:02:43;;;;;;;1.63;1.27;;;;;;;19.07;100.00;97359.88;5102224;28;20035;-76
2022/09/01 06:05:09;;;;;;;1.83;1.67;;;;;;;19.28;100.00;97357.72;5099983;27;20038;-76
2022/09/01 06:07:36;;;;;;;4.03;2.17;;;;;;;19.46;100.00;97355.91;5098145;27;20051;-77
2022/09/01 06:10:03;;;;;;;1.10;1.00;;;;;;;19.55;100.00;97354.13;5117268;27;20020;-77
2022/09/01 06:12:29;;;;;;;2.47;1.73;;;;;;;19.44;100.00;97344.38;5097345;28;20023;-76
2022/09/01 06:14:55;;;;;;;4.35;1.23;;;;;;;19.55;100.00;97343.25;5100718;27;20127;-76
2022/09/01 06:17:25;;;;;;;2.83;1.80;;;;;;;19.71;100.00;97349.72;5099693;27;20080;-76
2022/09/01 06:19:54;;;;;;;1.58;1.25;;;;;;;19.78;100.00;97333.66;5113174;27;20057;-76
2022/09/01 06:22:20;;;;;;;5.45;1.83;;;;;;;19.83;100.00;97332.16;5101752;27;20029;-78
2022/09/01 06:24:46;;;;;;;3.97;2.17;;;;;;;19.76;100.00;97319.38;5106635;27;20031;-77
2022/09/01 06:27:19;;;;;;;4.57;1.90;;;;;;;19.81;100.00;97323.31;5096434;27;20057;-76
2022/09/01 06:29:46;;;;;;;;;;;;;;;19.77;100.00;97321.94;5096781;27;20110;-77
2022/09/01 06:32:12;;;;;;;2.53;1.30;;;;;;;19.88;100.00;97328.97;5094692;27;19912;-76
2022/09/01 06:34:41;;;;;;;4.28;2.08;;;;;;;20.08;100.00;97324.19;5096092;27;20029;-76
2022/09/01 06:37:06;;;;;;;1.50;1.40;;;;;;;20.21;100.00;97324.63;5109498;27;20034;-78
2022/09/01 06:39:33;;;;;;;3.85;1.77;;;;;;;19.78;100.00;97306.50;5098810;28;20028;-77
2022/09/01 06:41:59;;;;;;;1.92;1.20;;;;;;;19.65;100.00;97311.47;5096129;28;20034;-76
2022/09/01 06:44:25;;;;;;;2.80;2.08;;;;;;;19.77;100.00;97310.22;5090597;28;20063;-76
2022/09/01 06:46:51;;;;;;;3.13;1.80;;;;;;;19.93;100.00;97322.03;5108667;27;20467;-77
2022/09/01 06:49:18;;;;;;;3.22;1.95;;;;;;;20.01;100.00;97305.81;5089262;27;20398;-76
2022/09/01 06:51:51;;;;;;;4.88;2.20;;;;;;;19.84;100.00;97306.69;5122074;27;20494;-76
2022/09/01 06:54:18;;;;;;;2.33;2.13;;;;;;;19.99;100.00;97315.97;5102537;28;20130;-77
2022/09/01 06:56:45;;;;;;;3.88;2.30;;;;;;;20.11;100.00;97297.56;5106449;27;20028;-77
2022/09/01 06:59:13;;;;;;;6.65;1.63;;;;;;;20.35;100.00;97299.59;5091718;27;20088;-77
2022/09/01 07:01:38;;;;;;;4.78;1.92;;;;;;;20.53;100.00;97289.50;5089575;28;20051;-76
2022/09/01 07:04:04;;;;;;;3.45;1.85;;;;;;;20.54;100.00;97294.78;5102474;28;20053;-77
2022/09/01 07:06:30;;;;;;;2.38;1.90;;;;;;;20.26;100.00;97297.84;5087143;28;20505;-76
2022/09/01 07:08:58;;;;;;;3.15;2.05;;;;;;;20.49;100.00;97297.13;5117996;27;20482;-75
2022/09/01 07:11:28;;;;;;;1.42;1.13;;;;;;;20.81;100.00;97298.28;5139088;27;20106;-77
2022/09/01 07:14:03;;;;;;;2.50;1.63;;;;;;;20.47;100.00;97287.44;5111927;28;20499;-79
2022/09/01 07:16:33;;;;;;;3.15;1.52;;;;;;;20.75;100.00;97297.06;5086999;28;20100;-78
2022/09/01 07:19:00;;;;;;;3.17;1.98;;;;;;;21.13;100.00;97295.69;5116463;28;20164;-77
2022/09/01 07:21:28;;;;;;;12.35;2.88;;;;;;;21.48;100.00;97272.75;5113389;27;20043;-78
2022/09/01 07:23:54;;;;;;;1.40;1.30;;;;;;;21.94;100.00;97274.81;5121048;28;20023;-75
2022/09/01 07:26:21;;;;;;;2.30;2.08;;;;;;;22.32;100.00;97275.09;5094675;28;20088;-77
2022/09/01 07:28:49;;;;;;;2.17;1.98;;;;;;;22.54;100.00;97266.16;5090097;28;20454;-76
2022/09/01 07:31:35;;;;;;;2.08;1.77;;;;;;;23.01;100.00;97269.69;5087401;28;20040;-75
2022/09/01 07:34:11;;;;;;;1.52;1.42;;;;;;;23.46;100.00;97268.09;5118304;28;20483;-75
2022/09/01 07:36:38;;;;;;;4.32;1.98;;;;;;;23.73;99.04;97254.72;5086604;28;20035;-75
2022/09/01 07:39:04;;;;;;;2.55;1.80;;;;;;;23.82;98.35;97260.09;5102363;28;20027;-76
2022/09/01 07:41:31;;;;;;;6.60;1.58;;;;;;;24.20;94.28;97257.22;5100306;28;20479;-77
2022/09/01 07:43:59;;;;;;;6.97;2.30;;;;;;;24.68;91.82;97260.41;5080249;28;20030;-76
2022/09/01 07:46:25;;;;;;;1.92;1.80;;;;;;;25.02;89.30;97251.59;5103466;28;20046;-77
2022/09/01 07:48:54;;;;;;;1.45;1.30;;;;;;;24.69;91.50;97252.00;5093743;28;20052;-76
2022/09/01 07:51:22;;;;;;;5.50;2.10;;;;;;;24.66;89.29;97243.34;5084723;28;20031;-75
2022/09/01 07:53:49;;;;;;;1.48;1.38;;;;;;;25.44;86.22;97234.38;5101772;28;20031;-76
2022/09/01 07:56:17;;;;;;;3.13;2.30;;;;;;;27.88;75.43;97250.16;5098932;28;20038;-77
2022/09/01 07:58:44;;;;;;;2.72;2.50;;;;;;;29.94;65.42;97237.22;5108224;28;20504;-78
2022/09/01 08:01:13;;;;;;;4.88;2.10;;;;;;;31.30;59.35;97214.97;5104502;28;20081;-78
2022/09/01 08:03:40;;;;;;;3.17;2.28;;;;;;;32.64;54.81;97218.78;5081183;28;20054;-76
2022/09/01 08:06:08;;;;;;;1.40;1.30;;;;;;;32.88;53.03;97224.31;5100616;28;20031;-76
2022/09/01 08:08:35;;;;;;;1.33;1.23;;;;;;;31.10;55.69;97218.84;5126348;27;20026;-77
2022/09/01 08:11:01;;;;;;;1.80;1.38;;;;;;;30.32;58.39;97237.13;5092164;28;20027;-76
2022/09/01 08:13:27;;;;;;;1.25;1.00;;;;;;;29.99;59.63;97236.56;5104314;28;20104;-78
2022/09/01 08:15:52;;;;;;;2.90;1.55;;;;;;;31.20;56.70;97223.84;5118478;27;20064;-78
2022/09/01 08:18:18;;;;;;;1.20;1.10;;;;;;;32.88;52.10;97210.47;5122873;27;20020;-78
2022/09/01 08:20:46;;;;;;;4.65;1.58;;;;;;;33.14;50.52;97213.56;5101748;27;20486;-77
2022/09/01 08:23:14;;;;;;;8.57;2.00;;;;;;;33.34;49.20;97199.25;5087423;28;20039;-76
2022/09/01 08:25:41;;;;;;;0.68;0.68;;;;;;;34.23;47.16;97201.22;5081280;28;20053;-77
2022/09/01 08:28:07;;;;;;;7.20;4.15;;;;;;;34.59;46.43;97205.41;5083889;28;20024;-77
2022/09/01 08:30:33;;;;;;;13.70;10.43;;;;;;;34.45;46.36;97201.28;5112784;27;20423;-77
2022/09/01 08:33:02;;;;;;;16.55;11.05;;;;;;;33.52;47.61;97189.88;5093703;28;20019;-78
2022/09/01 08:35:28;;;;;;;14.52;10.13;;;;;;;35.01;46.05;97199.31;5104270;28;20614;-78
2022/09/01 08:37:55;;;;;;;17.33;11.02;;;;;;;36.04;43.60;97181.56;5093888;27;20035;-77
2022/09/01 08:40:22;;;;;;;16.23;9.85;;;;;;;37.13;41.99;97177.03;5091939;28;20016;-78
2022/09/01 08:43:26;;;;;;;15.60;9.57;;;;;;;37.64;40.37;97177.22;5105390;27;20124;-78
2022/09/01 08:45:54;;;;;;;18.40;10.32;;;;;;;37.69;40.08;97172.50;5134441;27;20136;-79
2022/09/01 08:48:27;;;;;;;15.45;9.88;;;;;;;38.10;39.05;97176.19;5091555;28;20023;-79
2022/09/01 08:51:05;;;;;;;12.38;8.98;;;;;;;37.67;39.58;97168.31;5094929;27;20043;-80
2022/09/01 08:53:35;;;;;;;15.70;9.18;;;;;;;37.37;39.54;97152.31;5101786;28;20072;-79
2022/09/01 08:56:01;;;;;;;14.18;9.60;;;;;;;36.41;41.02;97158.22;5109597;27;20028;-77
2022/09/01 08:58:29;;;;;;;44.95;35.53;;;;;;;36.30;41.11;97155.63;5082399;28;20376;-78
2022/09/01 09:00:59;;;;;;;15.57;8.32;;;;;;;36.17;41.61;97158.88;5088450;28;20106;-78
2022/09/01 09:03:34;;;;;;;14.40;7.95;;;;;;;36.69;40.68;97153.38;5096601;27;20028;-79
2022/09/01 09:06:14;;;;;;;12.35;6.78;;;;;;;35.59;42.41;97160.56;5111878;27;20128;-78
2022/09/01 09:08:48;;;;;;;12.50;7.55;;;;;;;36.04;41.41;97146.19;5094091;27;20050;-78
2022/09/01 09:11:57;;;;;;;11.95;7.07;;;;;;;37.00;39.89;97152.44;5123524;27;20023;-79
2022/09/01 09:15:00;;;;;;;8.68;7.13;;;;;;;37.32;39.76;97152.25;5066144;27;20032;-79
2022/09/01 09:17:34;;;;;;;13.48;7.65;;;;;;;36.76;40.75;97152.00;5107832;27;20495;-78
2022/09/01 09:20:01;;;;;;;11.80;7.93;;;;;;;37.24;40.59;97142.50;5090680;27;20051;-79
2022/09/01 09:22:26;;;;;;;14.35;7.80;;;;;;;37.20;39.43;97143.31;5088967;28;20410;-78
2022/09/01 09:25:13;;;;;;;20.13;7.20;;;;;;;36.93;40.28;97137.88;5092001;28;20123;-78
2022/09/01 09:27:42;;;;;;;11.05;7.55;;;;;;;35.80;42.22;97123.44;5101482;27;20122;-78
2022/09/01 09:30:11;;;;;;;14.25;7.50;;;;;;;36.41;41.06;97119.19;5116343;27;20027;-81
2022/09/01 09:32:56;;;;;;;9.82;6.78;;;;;;;38.29;37.46;97132.59;5109301;27;20038;-78
2022/09/01 09:35:30;;;;;;;13.95;6.55;;;;;;;37.51;38.15;97105.16;5085195;28;20055;-79
2022/09/01 09:37:56;;;;;;;13.88;7.07;;;;;;;35.89;41.10;97112.66;5109789;27;20024;-79
2022/09/01 09:40:25;;;;;;;12.10;6.90;;;;;;;35.03;42.79;97105.34;5081740;28;20031;-83
2022/09/01 09:42:54;;;;;;;25.60;7.80;;;;;;;37.24;39.50;97116.53;5096815;28;20417;-82
2022/09/01 09:45:39;;;;;;;9.18;6.60;;;;;;;37.62;37.45;97092.91;5112464;28;20016;-85
2022/09/01 09:48:25;;;;;;;13.13;5.97;;;;;;;38.63;35.40;97085.28;5112388;27;20036;-81
2022/09/01 09:50:51;;;;;;;11.10;5.70;;;;;;;37.82;37.48;97085.38;5089197;28;20100;-79
2022/09/01 09:53:16;;;;;;;8.75;5.80;;;;;;;36.93;38.95;97088.50;5112488;27;20035;-79
2022/09/01 09:56:00;;;;;;;7.88;6.38;;;;;;;37.71;38.19;97094.88;5102172;27;20060;-80
2022/09/01 09:58:39;;;;;;;10.38;5.90;;;;;;;37.75;37.12;97079.22;5118000;27;20032;-80
2022/09/01 10:01:13;;;;;;;14.10;6.20;;;;;;;37.60;37.95;97082.00;5117173;27;20035;-80
2022/09/01 10:03:48;;;;;;;10.07;5.78;;;;;;;39.10;36.38;97096.03;5092727;28;20101;-79
2022/09/01 10:06:29;;;;;;;10.25;5.55;;;;;;;40.47;33.85;97087.44;5103975;27;20500;-79
2022/09/01 10:08:54;;;;;;;8.10;5.75;;;;;;;39.91;34.39;97064.69;5115511;27;20061;-79
2022/09/01 10:11:37;;;;;;;15.13;6.20;;;;;;;39.61;34.86;97048.94;5125868;27;20058;-80
2022/09/01 10:14:15;;;;;;;11.30;6.15;;;;;;;39.64;35.63;97062.38;5102055;27;20401;-80
2022/09/01 10:16:42;;;;;;;17.35;6.38;;;;;;;40.27;35.08;97068.03;5131908;27;20030;-80
2022/09/01 10:19:12;;;;;;;14.27;6.38;;;;;;;39.24;35.18;97052.28;5121287;27;20029;-82
2022/09/01 10:21:40;;;;;;;7.53;5.78;;;;;;;38.42;35.97;97052.91;5094849;28;20047;-81
2022/09/01 10:24:15;;;;;;;10.02;6.55;;;;;;;36.00;40.01;97049.47;5108407;28;20088;-81
2022/09/01 10:26:42;;;;;;;11.75;6.70;;;;;;;35.87;41.45;97062.78;5116755;27;20035;-81
2022/09/01 10:29:19;;;;;;;9.43;5.97;;;;;;;36.89;39.38;97067.00;5102785;27;20031;-81
2022/09/01 10:31:44;;;;;;;11.32;6.97;;;;;;;37.97;38.47;97067.78;5100359;27;20043;-81
2022/09/01 10:34:15;;;;;;;10.48;6.22;;;;;;;38.97;36.21;97063.91;5101452;28;20023;-83
2022/09/01 10:36:42;;;;;;;7.25;5.63;;;;;;;39.40;35.54;97051.06;5089883;28;20566;-81
2022/09/01 10:39:13;;;;;;;9.77;5.45;;;;;;;39.59;34.60;97040.00;5101513;27;20031;-83
2022/09/01 10:41:42;;;;;;;9.82;6.05;;;;;;;39.75;34.74;97043.56;5107111;27;20026;-82
2022/09/01 10:44:18;;;;;;;8.15;5.30;;;;;;;41.30;31.65;97047.66;5120996;27;20020;-81
2022/09/01 10:46:44;;;;;;;8.32;5.82;;;;;;;41.70;31.52;97032.16;5119834;27;20527;-82
2022/09/01 10:49:27;;;;;;;12.07;5.80;;;;;;;41.30;32.16;97028.84;5094215;28;20019;-81
2022/09/01 10:51:54;;;;;;;11.65;5.30;;;;;;;40.65;32.51;97016.53;5110829;28;20551;-82
2022/09/01 10:54:37;;;;;;;5.95;5.30;;;;;;;39.62;34.75;97022.63;5111202;27;20038;-81
2022/09/01 10:57:27;;;;;;;7.28;5.38;;;;;;;39.75;35.18;97032.34;5125275;27;20038;-82
2022/09/01 10:59:53;;;;;;;8.75;5.93;;;;;;;39.79;35.81;97037.06;5120326;27;20039;-81
2022/09/01 11:02:23;;;;;;;11.25;5.80;;;;;;;40.15;34.44;97029.16;5102675;28;20038;-82
2022/09/01 11:04:48;;;;;;;6.85;5.65;;;;;;;38.36;36.13;97017.72;5105663;28;20024;-82
2022/09/01 11:07:17;;;;;;;6.88;5.45;;;;;;;37.74;37.44;97023.66;5127323;27;20034;-83
2022/09/01 11:09:47;;;;;;;9.05;6.07;;;;;;;38.99;36.12;97016.88;5123527;27;20024;-81
2022/09/01 11:12:23;;;;;;;12.73;6.57;;;;;;;39.30;35.58;97008.28;5126758;27;20019;-82
2022/09/01 11:15:19;;;;;;;13.98;6.28;;;;;;;37.28;38.82;97011.59;5101644;28;20439;-82
2022/09/01 11:17:50;;;;;;;8.40;6.15;;;;;;;33.95;45.00;97025.50;5088447;28;20917;-81
2022/09/01 11:20:30;;;;;;;9.93;6.32;;;;;;;36.97;40.17;97033.00;5119875;27;20030;-80
2022/09/01 11:22:56;;;;;;;7.53;5.40;;;;;;;38.77;36.56;97030.38;5109102;28;20035;-82
2022/09/01 11:25:39;;;;;;;6.93;5.05;;;;;;;40.34;34.27;97020.81;5118348;27;20028;-82
2022/09/01 11:28:22;;;;;;;9.98;5.07;;;;;;;41.40;32.73;97011.03;5122585;27;20478;-82
2022/09/01 11:31:05;;;;;;;12.40;5.80;;;;;;;40.57;33.66;97006.00;5123051;28;20478;-83
2022/09/01 11:33:52;;;;;;;8.27;5.25;;;;;;;40.56;33.85;97001.50;5126716;28;20023;-82
2022/09/01 11:36:18;;;;;;;11.00;6.38;;;;;;;38.49;36.83;97001.16;5098862;28;20041;-82
2022/09/01 11:38:50;;;;;;;13.20;6.40;;;;;;;35.67;40.24;96984.69;5127409;28;20042;-82
2022/09/01 11:41:24;;;;;;;10.88;5.93;;;;;;;35.53;41.70;97011.28;5124417;27;20027;-81